Time;durP1;ratioP1;P1;durP2;ratioP2;P2;SDS_P1;SDS_P2;PMS_P1;PMS_P2;Temp;Humidity;BMP_temperature;BMP_pressure;BME280_temperature;BME280_humidity;BME280_pressure;Samples;Min_cycle;Max_cycle;Signal;HPM_P1;HPM_P2
2023/05/02 00:00:20;;;;;;;;;;;11.00;99.90;;;;;;5053685;28;20131;-78
2023/05/02 00:02:45;;;;;;;74.50;20.87;;;11.10;99.90;;;;;;5036423;28;20012;-77
2023/05/02 00:05:11;;;;;;;78.28;21.67;;;11.00;99.90;;;;;;5054355;28;20091;-77
2023/05/02 00:07:37;;;;;;;71.32;21.90;;;11.00;99.90;;;;;;5052718;28;20049;-79
2023/05/02 00:10:04;;;;;;;66.20;19.35;;;11.00;99.90;;;;;;5053318;28;20092;-79
2023/05/02 00:12:30;;;;;;;59.00;18.55;;;11.00;99.90;;;;;;5054625;28;20056;-80
2023/05/02 00:14:56;;;;;;;70.07;22.38;;;11.00;99.90;;;;;;5052718;28;20049;-78
2023/05/02 00:17:21;;;;;;;60.03;18.08;;;11.00;99.90;;;;;;5054460;28;20049;-77
2023/05/02 00:19:47;;;;;;;55.88;17.75;;;11.00;99.90;;;;;;5053271;28;20452;-77
2023/05/02 00:22:13;;;;;;;51.65;16.70;;;11.00;99.90;;;;;;5052964;28;20056;-75
2023/05/02 00:24:38;;;;;;;63.08;17.73;;;11.00;99.90;;;;;;5053833;28;20037;-76
2023/05/02 00:27:05;;;;;;;46.83;15.15;;;11.00;99.90;;;;;;5052931;28;20052;-75
2023/05/02 00:29:31;;;;;;;43.15;14.48;;;11.00;99.90;;;;;;5036326;28;20386;-75
2023/05/02 00:31:57;;;;;;;58.35;16.60;;;10.90;99.90;;;;;;5054558;28;20045;-77
2023/05/02 00:34:27;;;;;;;54.17;15.63;;;10.90;99.90;;;;;;5052795;28;20064;-76
2023/05/02 00:36:53;;;;;;;44.85;14.18;;;10.80;99.90;;;;;;5054501;28;20072;-77
2023/05/02 00:39:19;;;;;;;54.78;12.13;;;10.80;99.90;;;;;;5053764;28;20417;-75
2023/05/02 00:41:44;;;;;;;36.70;11.15;;;10.70;99.90;;;;;;5053684;28;20091;-78
2023/05/02 00:44:10;;;;;;;32.50;10.02;;;10.70;99.90;;;;;;5053681;28;20110;-74
2023/05/02 00:46:36;;;;;;;27.13;8.68;;;10.60;99.90;;;;;;5036472;28;20041;-75
2023/05/02 00:49:02;;;;;;;23.30;7.63;;;10.40;99.90;;;;;;5053580;28;20051;-76
2023/05/02 00:51:28;;;;;;;32.03;10.02;;;10.40;99.90;;;;;;5053674;28;20127;-77
2023/05/02 00:53:55;;;;;;;30.40;9.27;;;10.30;99.90;;;;;;5053762;28;20041;-76
2023/05/02 00:56:20;;;;;;;33.05;11.15;;;10.10;99.90;;;;;;5052814;28;20131;-76
2023/05/02 00:58:46;;;;;;;35.20;9.90;;;10.00;99.90;;;;;;5053299;28;20131;-78
2023/05/02 01:01:34;;;;;;;41.95;12.48;;;9.90;99.90;;;;;;5053414;28;20048;-77
2023/05/02 01:04:12;;;;;;;37.13;10.13;;;9.80;99.90;;;;;;5053522;28;20124;-76
2023/05/02 01:07:04;;;;;;;40.83;11.57;;;9.80;99.90;;;;;;5054277;28;20423;-75
2023/05/02 01:09:52;;;;;;;28.13;9.27;;;9.70;99.90;;;;;;5053443;28;20091;-78
2023/05/02 01:12:32;;;;;;;33.72;8.85;;;9.60;99.90;;;;;;5053093;28;20513;-76
2023/05/02 01:15:04;;;;;;;34.30;10.35;;;9.60;99.90;;;;;;5053090;28;20520;-77
2023/05/02 01:17:33;;;;;;;34.60;9.52;;;9.50;99.90;;;;;;5053758;28;20055;-78
2023/05/02 01:20:04;;;;;;;28.45;9.43;;;9.50;99.90;;;;;;5053940;28;20049;-78
2023/05/02 01:22:32;;;;;;;37.65;8.13;;;9.50;99.90;;;;;;5057202;28;20059;-77
2023/05/02 01:25:26;;;;;;;31.33;9.40;;;9.40;99.90;;;;;;5059889;28;20120;-77
2023/05/02 01:27:55;;;;;;;32.33;8.45;;;9.50;99.90;;;;;;5059859;28;20127;-76
2023/05/02 01:30:23;;;;;;;29.67;9.38;;;9.50;99.90;;;;;;5059897;28;20052;-77
2023/05/02 01:32:51;;;;;;;26.90;8.60;;;9.50;99.90;;;;;;5059784;28;20060;-75
2023/05/02 01:35:19;;;;;;;35.97;10.07;;;9.40;99.90;;;;;;5059731;28;20060;-76
2023/05/02 01:37:47;;;;;;;27.83;9.23;;;9.50;99.90;;;;;;5058220;28;20048;-77
2023/05/02 01:40:16;;;;;;;32.20;8.60;;;9.40;99.90;;;;;;5060484;28;20064;-77
2023/05/02 01:42:45;;;;;;;33.08;8.18;;;9.40;99.90;;;;;;5058525;28;20558;-77
2023/05/02 01:45:11;;;;;;;26.75;7.10;;;9.30;99.90;;;;;;5059700;28;20041;-77
2023/05/02 01:47:39;;;;;;;22.60;7.00;;;9.40;99.90;;;;;;5059733;28;20040;-77
2023/05/02 01:50:10;;;;;;;21.85;6.28;;;9.30;99.90;;;;;;5059628;28;20052;-78
2023/05/02 01:52:37;;;;;;;22.88;7.70;;;9.20;99.90;;;;;;5058288;28;20045;-78
2023/05/02 01:55:05;;;;;;;22.75;7.38;;;9.10;99.90;;;;;;5059542;28;20358;-77
2023/05/02 01:57:31;;;;;;;21.15;6.47;;;9.10;99.90;;;;;;5058675;28;20434;-76
2023/05/02 01:59:58;;;;;;;23.83;6.93;;;9.10;99.90;;;;;;5060060;28;20059;-77
2023/05/02 02:02:26;;;;;;;20.30;5.53;;;9.00;99.90;;;;;;5058639;28;20485;-77
2023/05/02 02:04:58;;;;;;;17.73;6.22;;;9.00;99.90;;;;;;5058882;28;20068;-78
2023/05/02 02:07:24;;;;;;;16.10;5.85;;;9.00;99.90;;;;;;5060363;28;20045;-77
2023/05/02 02:09:50;;;;;;;18.25;6.13;;;9.00;99.90;;;;;;5059583;28;20075;-77
2023/05/02 02:12:37;;;;;;;21.80;6.35;;;8.90;99.90;;;;;;5059727;28;20056;-77
2023/05/02 02:15:08;;;;;;;25.75;5.72;;;8.90;99.90;;;;;;5059947;28;20041;-77
2023/05/02 02:17:42;;;;;;;21.70;5.80;;;9.00;99.90;;;;;;5058323;28;20098;-77
2023/05/02 02:20:10;;;;;;;21.08;5.90;;;9.00;99.90;;;;;;5058422;28;20049;-78
2023/05/02 02:22:39;;;;;;;16.35;5.63;;;9.00;99.90;;;;;;5042480;28;20057;-78
2023/05/02 02:25:09;;;;;;;15.95;5.18;;;9.00;99.90;;;;;;5058570;28;20196;-77
2023/05/02 02:27:36;;;;;;;15.30;5.13;;;9.10;99.90;;;;;;5058433;28;20158;-77
2023/05/02 02:30:02;;;;;;;;;;;9.10;99.90;;;;;;5058578;28;20397;-78
2023/05/02 02:32:28;;;;;;;16.20;5.60;;;9.00;99.90;;;;;;5059817;28;19924;-79
2023/05/02 02:34:54;;;;;;;23.38;5.60;;;9.10;99.90;;;;;;5055434;28;20065;-76
2023/05/02 02:37:29;;;;;;;19.88;5.00;;;9.10;99.90;;;;;;5055609;28;20053;-76
2023/05/02 02:40:06;;;;;;;15.88;4.22;;;9.10;99.90;;;;;;5055177;28;20496;-76
2023/05/02 02:42:41;;;;;;;19.00;4.57;;;9.10;99.90;;;;;;5055756;28;20453;-77
2023/05/02 02:45:19;;;;;;;15.68;3.83;;;9.10;99.90;;;;;;5055925;28;20048;-77
2023/05/02 02:47:58;;;;;;;16.27;4.60;;;9.20;99.90;;;;;;5056664;28;20110;-76
2023/05/02 02:50:58;;;;;;;15.38;4.10;;;9.20;99.90;;;;;;5056451;28;20045;-76
2023/05/02 02:53:39;;;;;;;14.05;3.63;;;9.20;99.90;;;;;;5041708;28;20053;-78
2023/05/02 02:56:10;;;;;;;13.90;4.60;;;9.30;99.90;;;;;;5038873;28;20053;-77
2023/05/02 02:58:53;;;;;;;15.45;4.05;;;9.20;99.90;;;;;;5038820;28;20053;-75
2023/05/02 03:01:21;;;;;;;13.15;3.67;;;9.10;99.90;;;;;;5054597;28;20077;-75
2023/05/02 03:03:48;;;;;;;19.55;2.63;;;8.90;99.90;;;;;;5055473;28;20045;-74
2023/05/02 03:06:17;;;;;;;;;;;8.80;99.90;;;;;;5055911;28;20057;-73
2023/05/02 03:08:43;;;;;;;17.23;3.75;;;8.70;99.90;;;;;;5054486;28;20014;-75
2023/05/02 03:11:09;;;;;;;18.43;4.03;;;8.60;99.90;;;;;;5055432;28;20048;-75
2023/05/02 03:13:35;;;;;;;16.10;4.72;;;8.60;99.90;;;;;;5055335;28;20131;-78
2023/05/02 03:16:09;;;;;;;22.50;3.17;;;8.50;99.90;;;;;;5054171;28;20044;-74
2023/05/02 03:18:35;;;;;;;19.75;3.25;;;8.40;99.90;;;;;;5056196;28;20056;-75
2023/05/02 03:21:01;;;;;;;21.73;3.60;;;8.40;99.90;;;;;;5056022;28;20041;-73
2023/05/02 03:23:26;;;;;;;25.02;3.88;;;8.30;99.90;;;;;;5055040;28;20140;-73
2023/05/02 03:25:52;;;;;;;32.63;5.82;;;8.40;99.90;;;;;;5055437;28;20091;-74
2023/05/02 03:28:18;;;;;;;26.98;4.97;;;8.30;99.90;;;;;;5053840;28;20568;-75
2023/05/02 03:30:44;;;;;;;16.30;3.15;;;8.20;99.90;;;;;;5053984;28;20056;-75
2023/05/02 03:33:09;;;;;;;17.67;3.38;;;8.20;99.90;;;;;;5054847;28;20131;-73
2023/05/02 03:35:35;;;;;;;21.40;3.75;;;8.20;99.90;;;;;;5053422;28;20386;-74
2023/05/02 03:38:01;;;;;;;19.20;3.17;;;8.20;99.90;;;;;;5055388;28;20065;-76
2023/05/02 03:40:27;;;;;;;25.98;4.47;;;8.40;99.90;;;;;;5054828;28;20375;-73
2023/05/02 03:42:52;;;;;;;22.70;4.68;;;8.30;99.90;;;;;;5037290;28;20056;-75
2023/05/02 03:45:18;;;;;;;26.23;4.40;;;8.40;99.90;;;;;;5054008;28;20045;-75
2023/05/02 03:47:44;;;;;;;26.00;4.97;;;8.40;99.90;;;;;;5054453;28;20178;-74
2023/05/02 03:50:10;;;;;;;26.60;5.10;;;8.30;99.90;;;;;;5055072;28;20052;-76
2023/05/02 03:52:35;;;;;;;28.17;5.07;;;8.40;99.90;;;;;;5054622;28;20413;-73
2023/05/02 03:55:01;;;;;;;30.55;4.65;;;8.40;99.90;;;;;;5054498;28;20045;-75
2023/05/02 03:57:30;;;;;;;32.38;5.50;;;8.40;99.90;;;;;;5054427;28;20037;-74
2023/05/02 03:59:56;;;;;;;31.48;4.20;;;8.40;99.90;;;;;;5053748;28;20041;-72
2023/05/02 04:02:21;;;;;;;28.40;4.68;;;8.40;99.90;;;;;;5053293;28;20053;-75
2023/05/02 04:04:48;;;;;;;40.83;4.57;;;8.40;99.90;;;;;;5054005;28;20091;-76
2023/05/02 04:07:18;;;;;;;35.97;5.80;;;8.40;99.90;;;;;;5054347;28;20045;-75
2023/05/02 04:09:44;;;;;;;25.67;4.80;;;8.30;99.90;;;;;;5054056;28;20575;-76
2023/05/02 04:12:10;;;;;;;19.98;4.25;;;8.30;99.90;;;;;;5054173;28;20400;-76
2023/05/02 04:14:35;;;;;;;25.92;3.78;;;8.50;99.90;;;;;;5053952;28;20139;-74
2023/05/02 04:17:01;;;;;;;27.73;3.42;;;8.40;99.90;;;;;;5053152;28;20128;-73
2023/05/02 04:19:27;;;;;;;16.23;2.63;;;8.40;99.90;;;;;;5036590;28;20060;-75
2023/05/02 04:21:52;;;;;;;23.35;2.90;;;8.30;99.90;;;;;;5054349;28;20473;-74
2023/05/02 04:24:18;;;;;;;22.95;4.65;;;8.20;99.90;;;;;;5053448;28;20049;-73
2023/05/02 04:26:46;;;;;;;18.92;2.83;;;8.10;99.90;;;;;;5054065;28;20087;-74
2023/05/02 04:29:12;;;;;;;25.17;3.63;;;8.00;99.90;;;;;;5053710;28;20057;-73
2023/05/02 04:31:38;;;;;;;25.50;3.75;;;8.00;99.90;;;;;;5053815;28;20076;-74
2023/05/02 04:34:05;;;;;;;23.55;3.55;;;8.00;99.90;;;;;;5052380;28;20049;-74
2023/05/02 04:36:31;;;;;;;19.60;2.70;;;8.00;99.90;;;;;;5052791;28;20136;-73
2023/05/02 04:38:57;;;;;;;25.05;3.50;;;7.90;99.90;;;;;;5052700;28;20132;-74
2023/05/02 04:41:22;;;;;;;18.33;3.38;;;8.00;99.90;;;;;;5052402;28;20493;-74
2023/05/02 04:43:48;;;;;;;27.35;3.75;;;7.90;99.90;;;;;;5054049;28;20044;-75
2023/05/02 04:46:17;;;;;;;19.35;2.63;;;;;;;;;;5053698;28;20084;-73
2023/05/02 04:48:43;;;;;;;18.65;3.20;;;7.90;99.90;;;;;;5052540;28;20079;-73
2023/05/02 04:51:12;;;;;;;23.50;3.60;;;8.00;99.90;;;;;;5052193;28;20049;-73
2023/05/02 04:53:37;;;;;;;17.05;3.00;;;7.70;99.90;;;;;;5036652;28;20085;-74
2023/05/02 04:56:03;;;;;;;25.75;3.20;;;7.90;99.90;;;;;;5035877;28;20554;-74
2023/05/02 04:58:29;;;;;;;24.23;2.58;;;7.80;99.90;;;;;;5052672;28;20127;-72
2023/05/02 05:00:55;;;;;;;13.82;1.65;;;7.70;99.90;;;;;;5053430;28;20045;-74
2023/05/02 05:03:21;;;;;;;13.55;2.17;;;7.80;99.90;;;;;;5035755;28;20043;-75
2023/05/02 05:05:47;;;;;;;13.35;2.15;;;7.80;99.90;;;;;;5053113;28;20101;-75
2023/05/02 05:08:12;;;;;;;16.90;2.60;;;7.90;99.90;;;;;;5053337;28;20089;-73
2023/05/02 05:10:39;;;;;;;15.55;2.58;;;7.80;99.90;;;;;;5053266;28;20186;-75
2023/05/02 05:13:05;;;;;;;19.27;3.13;;;7.80;99.90;;;;;;5052110;28;20095;-74
2023/05/02 05:15:31;;;;;;;21.67;1.90;;;7.70;99.90;;;;;;5051938;28;20045;-74
2023/05/02 05:17:57;;;;;;;20.33;2.13;;;7.80;99.90;;;;;;5051953;28;20045;-74
2023/05/02 05:20:23;;;;;;;23.35;3.20;;;7.80;99.90;;;;;;5035432;28;20056;-74
2023/05/02 05:22:49;;;;;;;14.82;1.90;;;7.80;99.90;;;;;;5052130;28;20049;-75
2023/05/02 05:25:14;;;;;;;17.75;2.10;;;7.90;99.90;;;;;;5053153;28;20044;-75
2023/05/02 05:27:40;;;;;;;11.48;1.85;;;7.90;99.90;;;;;;5053073;28;20397;-73
2023/05/02 05:30:07;;;;;;;14.48;1.73;;;8.00;99.90;;;;;;5051954;28;20045;-74
2023/05/02 05:32:33;;;;;;;12.73;1.42;;;8.10;99.90;;;;;;5052501;28;20486;-74
2023/05/02 05:34:59;;;;;;;13.57;1.77;;;8.00;99.90;;;;;;5052003;28;20053;-72
2023/05/02 05:37:25;;;;;;;12.27;1.80;;;8.10;99.90;;;;;;5053124;28;20041;-73
2023/05/02 05:39:51;;;;;;;10.88;1.58;;;8.00;99.90;;;;;;5053156;28;20385;-74
2023/05/02 05:42:16;;;;;;;13.07;1.60;;;8.10;99.90;;;;;;5053280;28;20056;-75
2023/05/02 05:44:42;;;;;;;10.68;1.80;;;8.10;99.90;;;;;;5053157;28;20424;-75
2023/05/02 05:47:08;;;;;;;13.98;1.75;;;8.10;99.90;;;;;;5052861;28;20132;-75
2023/05/02 05:49:35;;;;;;;9.00;1.67;;;8.20;99.90;;;;;;5052830;28;20052;-74
2023/05/02 05:52:01;;;;;;;10.45;1.42;;;8.30;99.90;;;;;;5053817;28;20088;-73
2023/05/02 05:54:27;;;;;;;12.95;1.42;;;8.20;99.90;;;;;;5051768;28;20041;-75
2023/05/02 05:56:53;;;;;;;13.15;2.15;;;8.20;99.90;;;;;;5052887;28;20051;-75
2023/05/02 05:59:19;;;;;;;11.73;1.90;;;8.20;99.90;;;;;;5053108;28;20045;-74
2023/05/02 06:01:45;;;;;;;9.30;1.60;;;8.30;99.90;;;;;;5055469;28;20045;-76
2023/05/02 06:04:10;;;;;;;9.13;1.70;;;8.30;99.90;;;;;;5053338;28;20045;-75
2023/05/02 06:06:36;;;;;;;13.85;1.90;;;8.50;99.90;;;;;;5053016;28;20048;-74
2023/05/02 06:09:03;;;;;;;15.05;2.92;;;8.50;99.90;;;;;;5053497;28;20452;-75
2023/05/02 06:11:28;;;;;;;13.07;2.00;;;8.60;99.90;;;;;;5056526;28;20401;-73
2023/05/02 06:13:54;;;;;;;11.85;1.90;;;8.60;99.90;;;;;;5038729;28;20041;-75
2023/05/02 06:16:20;;;;;;;15.07;1.55;;;8.50;99.90;;;;;;5056510;28;20052;-75
2023/05/02 06:18:46;;;;;;;13.52;1.90;;;8.70;99.90;;;;;;5038969;28;20057;-75
2023/05/02 06:21:12;;;;;;;12.90;1.30;;;8.70;99.90;;;;;;5057191;28;20079;-74
2023/05/02 06:23:38;;;;;;;10.77;1.98;;;8.70;99.90;;;;;;5056232;28;20521;-74
2023/05/02 06:26:04;;;;;;;12.23;1.63;;;8.80;99.90;;;;;;5055542;28;20044;-75
2023/05/02 06:28:30;;;;;;;16.25;2.72;;;8.80;99.90;;;;;;5056243;28;20060;-74
2023/05/02 06:31:01;;;;;;;11.47;1.97;;;8.80;99.90;;;;;;5056252;28;20049;-73
2023/05/02 06:33:31;;;;;;;14.55;2.17;;;8.70;99.90;;;;;;5056351;28;20048;-75
2023/05/02 06:35:57;;;;;;;13.32;1.38;;;8.80;99.90;;;;;;5056442;28;20061;-73
2023/05/02 06:38:23;;;;;;;14.40;2.20;;;8.60;99.90;;;;;;5056228;28;20056;-74
2023/05/02 06:40:50;;;;;;;15.63;2.85;;;8.60;99.90;;;;;;5055993;28;20052;-73
2023/05/02 06:43:16;;;;;;;11.23;1.48;;;8.50;99.90;;;;;;5056288;28;20048;-74
2023/05/02 06:45:45;;;;;;;6.40;1.20;;;8.50;99.90;;;;;;5054860;28;20174;-75
2023/05/02 06:48:11;;;;;;;15.48;2.20;;;8.60;99.90;;;;;;5037944;28;20057;-76
2023/05/02 06:50:37;;;;;;;14.93;2.10;;;8.70;99.90;;;;;;5054412;28;20049;-73
2023/05/02 06:53:04;;;;;;;16.88;2.65;;;8.80;99.90;;;;;;5055721;28;20037;-74
2023/05/02 06:55:30;;;;;;;16.42;2.47;;;8.80;99.90;;;;;;5054422;28;20084;-74
2023/05/02 06:57:55;;;;;;;19.90;2.92;;;8.80;99.90;;;;;;5055596;28;20045;-74
2023/05/02 07:00:21;;;;;;;12.90;1.92;;;8.80;99.90;;;;;;5037856;28;20088;-74
2023/05/02 07:02:48;;;;;;;13.10;1.77;;;8.70;99.90;;;;;;5055517;28;20045;-73
2023/05/02 07:05:15;;;;;;;16.33;2.65;;;8.70;99.90;;;;;;5054933;28;20049;-75
2023/05/02 07:07:41;;;;;;;14.02;1.90;;;8.70;99.90;;;;;;5055147;28;20481;-74
2023/05/02 07:10:08;;;;;;;14.48;2.30;;;8.70;99.90;;;;;;5055467;28;20041;-73
2023/05/02 07:12:34;;;;;;;10.63;2.00;;;8.80;99.90;;;;;;5055345;28;20123;-73
2023/05/02 07:15:00;;;;;;;10.95;2.00;;;;;;;;;;5037708;28;20182;-71
2023/05/02 07:17:26;;;;;;;10.73;2.45;;;;;;;;;;5055397;28;20045;-74
2023/05/02 07:19:53;;;;;;;12.55;2.50;;;;;;;;;;5070198;28;20383;-74
2023/05/02 07:22:21;;;;;;;11.90;2.10;;;;;;;;;;5055207;28;20088;-74
2023/05/02 07:24:47;;;;;;;16.58;2.90;;;;;;;;;;5055355;28;20048;-74
2023/05/02 07:27:13;;;;;;;15.55;1.75;;;;;;;;;;5054914;28;20088;-74
2023/05/02 07:29:41;;;;;;;10.52;2.35;;;9.70;99.90;;;;;;5054928;28;20461;-74
2023/05/02 07:32:06;;;;;;;11.73;2.38;;;9.60;99.90;;;;;;5053794;28;20052;-75
2023/05/02 07:34:32;;;;;;;13.07;1.95;;;9.60;99.90;;;;;;5055288;28;20057;-75
2023/05/02 07:36:58;;;;;;;11.85;2.55;;;9.90;99.90;;;;;;5055690;28;20056;-72
2023/05/02 07:39:24;;;;;;;11.05;1.70;;;9.90;99.90;;;;;;5037281;28;20137;-74
2023/05/02 07:41:53;;;;;;;9.85;1.73;;;10.00;99.90;;;;;;5054055;28;20121;-73
2023/05/02 07:44:20;;;;;;;22.23;2.17;;;10.00;99.90;;;;;;5055265;28;20147;-76
2023/05/02 07:46:46;;;;;;;13.30;2.40;;;10.10;99.90;;;;;;5054728;28;20053;-73
2023/05/02 07:49:12;;;;;;;11.40;2.03;;;10.00;99.90;;;;;;5054097;28;20045;-73
2023/05/02 07:51:41;;;;;;;13.00;1.80;;;9.90;99.90;;;;;;5054697;28;20048;-75
2023/05/02 07:54:25;;;;;;;20.45;2.33;;;9.80;99.90;;;;;;5054508;28;20037;-76
2023/05/02 07:56:51;;;;;;;15.32;2.22;;;10.00;99.90;;;;;;5054181;28;20076;-75
2023/05/02 07:59:16;;;;;;;14.20;2.00;;;10.00;99.90;;;;;;5055296;28;20142;-75
2023/05/02 08:01:43;;;;;;;18.27;2.45;;;9.80;99.90;;;;;;5053709;28;20466;-74
2023/05/02 08:04:10;;;;;;;11.50;2.20;;;9.80;99.90;;;;;;5054083;28;20049;-75
2023/05/02 08:06:36;;;;;;;12.95;1.80;;;9.80;99.90;;;;;;5054677;28;20110;-74
2023/05/02 08:09:02;;;;;;;12.63;2.50;;;9.80;99.90;;;;;;5054903;28;20515;-73
2023/05/02 08:11:28;;;;;;;13.93;2.58;;;10.00;99.90;;;;;;5036314;28;20088;-75
2023/05/02 08:13:54;;;;;;;15.50;2.35;;;9.90;99.90;;;;;;5054104;28;20088;-75
2023/05/02 08:16:20;;;;;;;13.15;3.00;;;9.80;99.90;;;;;;5052903;28;20056;-71
2023/05/02 08:18:46;;;;;;;12.57;2.30;;;9.50;99.90;;;;;;5036466;28;20055;-73
2023/05/02 08:21:12;;;;;;;10.20;2.75;;;9.80;99.90;;;;;;5054076;28;20041;-74
2023/05/02 08:23:40;;;;;;;13.07;2.40;;;9.40;99.90;;;;;;5053915;28;20048;-74
2023/05/02 08:26:06;;;;;;;16.23;2.70;;;9.40;99.90;;;;;;5053886;28;20045;-75
2023/05/02 08:28:32;;;;;;;9.10;2.40;;;9.30;99.90;;;;;;5053265;28;20052;-74
2023/05/02 08:30:57;;;;;;;14.45;2.58;;;9.40;99.90;;;;;;5053708;28;20469;-76
2023/05/02 08:33:26;;;;;;;13.80;2.45;;;9.30;99.90;;;;;;5053862;28;20045;-75
2023/05/02 08:35:52;;;;;;;16.35;3.08;;;9.20;99.90;;;;;;5054726;28;20103;-73
2023/05/02 08:38:18;;;;;;;12.32;2.22;;;9.20;99.90;;;;;;5036109;28;20076;-75
2023/05/02 08:40:43;;;;;;;13.32;2.65;;;9.40;99.90;;;;;;5054005;28;20379;-74
2023/05/02 08:43:15;;;;;;;14.23;2.92;;;9.30;99.90;;;;;;5053653;28;20446;-74
2023/05/02 08:45:43;;;;;;;11.60;2.72;;;9.50;99.90;;;;;;5053919;28;20048;-74
2023/05/02 08:48:10;;;;;;;16.13;2.92;;;9.60;99.90;;;;;;5053475;28;20045;-74
2023/05/02 08:50:45;;;;;;;10.18;2.33;;;9.50;99.90;;;;;;5053629;28;20049;-74
2023/05/02 08:53:13;;;;;;;14.63;2.58;;;9.60;99.90;;;;;;5052117;28;20103;-74
2023/05/02 08:55:40;;;;;;;13.50;2.65;;;9.80;99.90;;;;;;5053942;28;20068;-74
2023/05/02 08:58:07;;;;;;;18.42;2.80;;;9.70;99.90;;;;;;5053319;28;20049;-73
2023/05/02 09:00:39;;;;;;;13.30;2.63;;;9.70;99.90;;;;;;5035777;28;20053;-75
2023/05/02 09:03:25;;;;;;;12.50;2.30;;;9.90;99.90;;;;;;5052087;28;20052;-75
2023/05/02 09:05:52;;;;;;;;;;;9.90;99.90;;;;;;5053779;28;20044;-74
2023/05/02 09:08:22;;;;;;;;;;;10.20;99.90;;;;;;5054224;28;19931;-76
2023/05/02 09:10:49;;;;;;;7.10;1.55;;;10.00;99.90;;;;;;5085309;28;19925;-74
2023/05/02 09:13:45;;;;;;;10.80;1.98;;;10.30;99.90;;;;;;5053264;28;20044;-75
2023/05/02 09:16:16;;;;;;;14.82;2.33;;;11.00;99.90;;;;;;5043602;28;20061;-74
2023/05/02 09:18:49;;;;;;;10.68;2.70;;;10.40;99.90;;;;;;5051755;28;20481;-73
2023/05/02 09:21:17;;;;;;;12.57;2.40;;;10.50;99.90;;;;;;5053112;28;20052;-72
2023/05/02 09:23:45;;;;;;;8.00;1.80;;;10.50;99.90;;;;;;5053160;28;20063;-75
2023/05/02 09:26:12;;;;;;;14.80;2.15;;;;;;;;;;5052127;28;20098;-74
2023/05/02 09:28:51;;;;;;;13.15;2.42;;;;;;;;;;5053179;28;20091;-72
2023/05/02 09:31:19;;;;;;;13.43;2.10;;;;;;;;;;5069055;28;20119;-73
2023/05/02 09:33:45;;;;;;;15.23;2.45;;;;;;;;;;5053517;28;20084;-75
2023/05/02 09:36:13;;;;;;;11.48;2.30;;;;;;;;;;5053564;28;20088;-73
2023/05/02 09:38:40;;;;;;;10.77;2.58;;;;;;;;;;5053105;28;20065;-74
2023/05/02 09:41:06;;;;;;;9.43;2.33;;;10.40;97.10;;;;;;5052023;28;20045;-73
2023/05/02 09:43:32;;;;;;;9.52;1.65;;;10.40;97.30;;;;;;5054269;28;20055;-76
2023/05/02 09:46:05;;;;;;;12.93;2.60;;;10.70;97.80;;;;;;5056958;28;20131;-74
2023/05/02 09:48:49;;;;;;;9.50;2.15;;;10.40;96.90;;;;;;5057031;28;20056;-74
2023/05/02 09:51:20;;;;;;;12.05;2.13;;;10.80;97.80;;;;;;5040106;28;20416;-76
2023/05/02 09:53:46;;;;;;;11.93;2.15;;;11.00;97.60;;;;;;5039262;28;20036;-74
2023/05/02 09:56:12;;;;;;;8.40;1.65;;;10.70;96.00;;;;;;5039020;28;20416;-76
2023/05/02 09:58:38;;;;;;;8.20;1.60;;;10.60;96.70;;;;;;5056258;28;20045;-74
2023/05/02 10:01:04;;;;;;;8.60;1.80;;;10.50;96.20;;;;;;5056712;28;20044;-73
2023/05/02 10:03:31;;;;;;;10.82;2.25;;;10.70;95.80;;;;;;5055584;28;20140;-75
2023/05/02 10:05:57;;;;;;;6.65;1.73;;;10.50;95.90;;;;;;5055610;28;20045;-76
2023/05/02 10:08:28;;;;;;;8.43;1.53;;;10.30;95.60;;;;;;5022244;28;20048;-74
2023/05/02 10:10:56;;;;;;;9.15;1.60;;;10.70;95.60;;;;;;5055595;28;20044;-74
2023/05/02 10:13:26;;;;;;;14.52;1.73;;;10.80;96.50;;;;;;5056619;28;20103;-74
2023/05/02 10:16:05;;;;;;;8.57;1.73;;;11.10;95.70;;;;;;5056516;28;20068;-75
2023/05/02 10:18:53;;;;;;;11.93;1.80;;;11.20;96.00;;;;;;5055040;28;20485;-75
2023/05/02 10:21:28;;;;;;;6.60;1.48;;;11.00;95.20;;;;;;5055737;28;20049;-75
2023/05/02 10:23:54;;;;;;;7.00;1.60;;;11.50;96.30;;;;;;5056727;28;20106;-73
2023/05/02 10:26:22;;;;;;;11.95;2.08;;;11.00;94.50;;;;;;5055383;28;20503;-75
2023/05/02 10:28:48;;;;;;;10.93;1.88;;;11.20;94.70;;;;;;5056818;28;20092;-74
2023/05/02 10:31:15;;;;;;;7.22;2.63;;;11.40;94.40;;;;;;5056059;28;20106;-77
2023/05/02 10:33:41;;;;;;;7.63;1.75;;;11.60;94.60;;;;;;5056011;28;20047;-76
2023/05/02 10:36:08;;;;;;;8.80;1.90;;;11.10;93.20;;;;;;5054472;28;20400;-73
2023/05/02 10:38:36;;;;;;;6.65;1.80;;;10.60;94.70;;;;;;5056061;28;20045;-74
2023/05/02 10:41:25;;;;;;;4.97;1.20;;;10.80;95.00;;;;;;5056888;28;20053;-74
2023/05/02 10:43:52;;;;;;;8.90;1.85;;;11.00;95.00;;;;;;5055621;28;20051;-76
2023/05/02 10:46:41;;;;;;;11.73;1.70;;;10.90;94.30;;;;;;5055926;28;20049;-75
2023/05/02 10:49:12;;;;;;;7.35;1.55;;;11.10;93.70;;;;;;5055416;28;20072;-77
2023/05/02 10:51:42;;;;;;;11.02;1.20;;;11.30;95.00;;;;;;5056616;28;20111;-75
2023/05/02 10:54:17;;;;;;;3.90;0.60;;;11.80;93.80;;;;;;5055150;28;20059;-75
2023/05/02 10:57:04;;;;;;;5.07;0.80;;;11.60;93.30;;;;;;5053951;28;20056;-73
2023/05/02 10:59:33;;;;;;;6.60;1.02;;;11.80;92.50;;;;;;5055780;28;20397;-75
2023/05/02 11:02:00;;;;;;;7.50;0.90;;;11.80;93.00;;;;;;5054919;28;20047;-76
2023/05/02 11:04:45;;;;;;;;;;;12.10;92.80;;;;;;5038494;28;20056;-74
2023/05/02 11:07:18;;;;;;;6.90;1.17;;;12.20;93.00;;;;;;5054334;28;19929;-74
2023/05/02 11:09:43;;;;;;;5.07;1.10;;;12.20;93.40;;;;;;5054261;28;20081;-75
2023/05/02 11:12:09;;;;;;;3.67;0.80;;;12.00;93.30;;;;;;5055760;28;20091;-75
2023/05/02 11:14:38;;;;;;;4.68;1.05;;;12.20;92.90;;;;;;5037693;28;20393;-74
2023/05/02 11:17:05;;;;;;;5.45;1.17;;;12.00;92.60;;;;;;5055388;28;20041;-75
2023/05/02 11:19:36;;;;;;;7.47;1.30;;;12.20;93.10;;;;;;5054399;28;20053;-76
2023/05/02 11:22:22;;;;;;;7.15;1.15;;;12.10;92.60;;;;;;5055625;28;20045;-78
2023/05/02 11:24:49;;;;;;;5.80;1.50;;;12.40;92.70;;;;;;5055260;28;20088;-75
2023/05/02 11:27:30;;;;;;;3.97;0.82;;;12.00;91.70;;;;;;5055163;28;20436;-76
2023/05/02 11:29:58;;;;;;;6.35;0.93;;;11.60;90.80;;;;;;5055139;28;20526;-75
2023/05/02 11:32:45;;;;;;;4.35;1.30;;;11.80;91.60;;;;;;5055747;28;20112;-77
2023/05/02 11:35:19;;;;;;;3.22;0.70;;;11.80;92.90;;;;;;5054732;28;20053;-75
2023/05/02 11:37:58;;;;;;;5.55;0.70;;;12.50;91.80;;;;;;5054966;28;20041;-75
2023/05/02 11:40:25;;;;;;;4.18;0.90;;;12.50;92.60;;;;;;5054677;28;20146;-75
2023/05/02 11:42:52;;;;;;;3.80;0.85;;;12.80;90.50;;;;;;5038138;28;20049;-78
2023/05/02 11:45:19;;;;;;;4.80;0.88;;;12.40;91.10;;;;;;5053712;28;20124;-77
2023/05/02 11:47:46;;;;;;;4.28;0.73;;;13.00;91.40;;;;;;5054530;28;20053;-76
2023/05/02 11:50:12;;;;;;;5.15;1.00;;;12.70;90.70;;;;;;5053959;28;20049;-77
2023/05/02 11:52:39;;;;;;;10.30;1.00;;;12.80;91.40;;;;;;5053667;28;20140;-77
2023/05/02 11:55:06;;;;;;;;;;;12.60;90.40;;;;;;5054869;28;20048;-76
2023/05/02 11:57:35;;;;;;;;;;;12.70;91.20;;;;;;5053743;28;19970;-75
2023/05/02 12:00:01;;;;;;;3.85;0.63;;;12.50;91.00;;;;;;5054431;28;19975;-78
2023/05/02 12:02:44;;;;;;;3.75;0.65;;;12.50;91.50;;;;;;5054485;28;20048;-74
2023/05/02 12:05:13;;;;;;;4.20;0.60;;;12.80;92.10;;;;;;5054564;28;20047;-74
2023/05/02 12:07:49;;;;;;;7.93;0.60;;;12.70;90.80;;;;;;5053922;28;20092;-75
2023/05/02 12:10:15;;;;;;;5.90;0.60;;;12.70;90.80;;;;;;5054406;28;20053;-74
2023/05/02 12:12:43;;;;;;;3.00;0.73;;;12.20;92.30;;;;;;5055072;28;20420;-77
2023/05/02 12:15:10;;;;;;;4.38;0.73;;;12.20;92.50;;;;;;5053158;28;20477;-76
2023/05/02 12:17:39;;;;;;;4.00;0.85;;;12.70;92.90;;;;;;5053243;28;20065;-76
2023/05/02 12:20:07;;;;;;;5.68;1.55;;;12.50;91.60;;;;;;5054168;28;20045;-74
2023/05/02 12:22:33;;;;;;;6.55;0.82;;;12.50;91.60;;;;;;5053973;28;20041;-75
2023/05/02 12:24:59;;;;;;;5.93;0.70;;;12.30;90.20;;;;;;5053132;28;20056;-75
2023/05/02 12:27:26;;;;;;;4.80;0.60;;;12.40;91.10;;;;;;5052959;28;20051;-75
2023/05/02 12:29:52;;;;;;;2.22;0.60;;;12.70;91.20;;;;;;5054513;28;20053;-76
2023/05/02 12:32:29;;;;;;;6.95;0.80;;;12.80;89.60;;;;;;5054014;28;20064;-76
2023/05/02 12:34:55;;;;;;;;;;;12.70;90.50;;;;;;5053462;28;20064;-76
2023/05/02 12:37:25;;;;;;;4.83;0.80;;;12.90;90.40;;;;;;5054735;28;20342;-75
2023/05/02 12:39:52;;;;;;;3.92;0.70;;;12.50;89.70;;;;;;5054059;28;20110;-76
2023/05/02 12:42:19;;;;;;;4.82;0.60;;;12.70;90.50;;;;;;5053726;28;20098;-76
2023/05/02 12:44:47;;;;;;;7.47;0.80;;;12.80;90.90;;;;;;5054140;28;20045;-74
2023/05/02 12:47:14;;;;;;;3.78;0.80;;;12.90;90.90;;;;;;5053713;28;20080;-75
2023/05/02 12:49:53;;;;;;;;;;;12.60;91.20;;;;;;5054079;28;20048;-74
2023/05/02 12:52:20;;;;;;;5.10;0.52;;;12.60;91.60;;;;;;5053696;28;19920;-76
2023/05/02 12:54:47;;;;;;;3.22;0.65;;;12.70;91.50;;;;;;5053379;28;20091;-75
2023/05/02 12:57:25;;;;;;;4.47;0.70;;;12.60;92.20;;;;;;5052843;28;20139;-75